Vivorata, Argentina
Current Conditions -  °F | °C
As of 6:00 AM on Saturday 29 Nov 2014 (Local Time) from SAZM Reporting Station
Clear Clear  
Wind Chill: 64°   Ceiling: Unl
Heat Index: 64°   Visibility: 6mi
Dew Point: 61°   Wind: 10mph
Humidity: 88%   Direction: 20°NNE
Pressure: 29.83"   Gusts: NA
Location:  37.67°S, 57.67°W
Report Text: SAZM 290900Z 02009KT CAVOK 18/16 Q1010
Loading
Personal Weather Stations






























Interactive Weather Map New forecast layout! Learn more

10-Day Weather Forecast

Advertisements
Track Severe Weather on mobile